Time;durP1;ratioP1;P1;durP2;ratioP2;P2;SDS_P1;SDS_P2;PMS_P1;PMS_P2;Temp;Humidity;BMP_temperature;BMP_pressure;BME280_temperature;BME280_humidity;BME280_pressure;Samples;Min_cycle;Max_cycle;Signal;HPM_P1;HPM_P2
2021/07/20 00:00:59;;;;;;;15.98;8.25;;;;;;;14.93;74.79;102293.69;4942954;28;20043;-51
2021/07/20 00:03:25;;;;;;;14.18;8.38;;;;;;;14.89;75.48;102291.84;4929262;28;20023;-50
2021/07/20 00:05:50;;;;;;;15.25;7.97;;;;;;;14.89;75.02;102291.84;4942624;28;20526;-53
2021/07/20 00:08:15;;;;;;;15.57;7.65;;;;;;;14.84;75.53;102296.13;4938124;28;20031;-50
2021/07/20 00:10:53;;;;;;;14.90;8.23;;;;;;;14.80;75.70;102295.19;4941810;28;20046;-49
2021/07/20 00:13:19;;;;;;;12.60;7.18;;;;;;;14.79;75.63;102293.44;4937716;28;20303;-50
2021/07/20 00:15:45;;;;;;;15.75;7.80;;;;;;;14.77;76.04;102286.38;4942391;28;20038;-52
2021/07/20 00:18:15;;;;;;;16.67;8.13;;;;;;;14.77;76.02;102297.75;4940419;28;20695;-53
2021/07/20 00:20:42;;;;;;;16.20;8.32;;;;;;;14.76;76.09;102301.22;4938202;28;20023;-51
2021/07/20 00:23:09;;;;;;;17.30;8.60;;;;;;;14.74;76.16;102291.56;4942375;28;20050;-52
2021/07/20 00:25:34;;;;;;;15.77;7.65;;;;;;;14.69;76.76;102290.59;4946371;28;20045;-52
2021/07/20 00:28:00;;;;;;;14.70;7.47;;;;;;;14.66;76.67;102293.16;4945735;28;20048;-49
2021/07/20 00:30:26;;;;;;;15.50;8.27;;;;;;;14.63;76.86;102293.13;4933764;28;20114;-52
2021/07/20 00:32:52;;;;;;;14.25;7.40;;;;;;;14.60;76.57;102292.19;4956428;28;20023;-47
2021/07/20 00:35:18;;;;;;;18.08;8.70;;;;;;;14.56;77.36;102292.09;4939314;28;20118;-48
2021/07/20 00:37:43;;;;;;;15.52;8.23;;;;;;;14.52;77.50;102292.88;4946089;28;20437;-50
2021/07/20 00:40:12;;;;;;;15.25;8.13;;;;;;;14.50;77.65;102297.25;4954458;28;20031;-51
2021/07/20 00:42:38;;;;;;;21.23;8.70;;;;;;;14.47;77.77;102303.28;4933768;28;20439;-54
2021/07/20 00:45:05;;;;;;;14.88;8.35;;;;;;;14.43;77.73;102298.84;4939996;28;21760;-49
2021/07/20 00:47:31;;;;;;;18.48;8.90;;;;;;;14.44;77.36;102298.00;4932640;28;20049;-49
2021/07/20 00:49:56;;;;;;;19.33;8.55;;;;;;;14.42;77.62;102290.94;4942194;28;20035;-49
2021/07/20 00:52:21;;;;;;;15.30;8.05;;;;;;;14.42;77.44;102290.94;4938437;28;20467;-50
2021/07/20 00:54:47;;;;;;;16.90;8.23;;;;;;;14.45;77.39;102291.03;4938726;28;20066;-51
2021/07/20 00:57:12;;;;;;;20.17;9.48;;;;;;;14.47;77.61;102292.81;4922646;28;20091;-49
2021/07/20 00:59:38;;;;;;;20.23;8.13;;;;;;;14.44;77.51;102295.38;4946754;28;20023;-51
2021/07/20 01:02:05;;;;;;;17.40;8.70;;;;;;;14.41;77.70;102294.41;4941580;28;20092;-52
2021/07/20 01:04:31;;;;;;;16.48;7.88;;;;;;;14.38;77.68;102295.25;4940943;28;20411;-53
2021/07/20 01:06:57;;;;;;;15.70;7.95;;;;;;;14.38;77.78;102292.63;4941024;28;20041;-48
2021/07/20 01:09:24;;;;;;;17.05;8.35;;;;;;;14.36;77.84;102296.03;4954366;28;20100;-51
2021/07/20 01:11:50;;;;;;;18.95;8.93;;;;;;;14.29;78.31;102295.00;4926080;28;20470;-49
2021/07/20 01:14:16;;;;;;;17.30;9.23;;;;;;;14.24;78.39;102291.41;4945588;28;20753;-53
2021/07/20 01:16:43;;;;;;;17.27;8.32;;;;;;;14.21;78.56;102286.97;4928614;28;20273;-50
2021/07/20 01:19:13;;;;;;;18.75;9.15;;;;;;;14.18;78.74;102292.19;4928051;28;20038;-50
2021/07/20 01:21:39;;;;;;;19.45;9.40;;;;;;;14.20;78.90;102289.59;4941304;28;20471;-50
2021/07/20 01:24:16;;;;;;;17.25;8.15;;;;;;;14.19;78.70;102286.09;4946280;28;20479;-48
2021/07/20 01:26:41;;;;;;;18.08;8.20;;;;;;;14.18;78.86;102284.31;4943686;28;20027;-48
2021/07/20 01:29:07;;;;;;;16.63;8.10;;;;;;;14.18;79.03;102280.78;4946234;28;20034;-51
2021/07/20 01:31:37;;;;;;;16.50;8.02;;;;;;;14.19;78.93;102285.19;4924428;28;20035;-49
2021/07/20 01:34:03;;;;;;;17.80;9.38;;;;;;;14.23;78.65;102281.78;4930003;28;20039;-52
2021/07/20 01:36:31;;;;;;;19.40;9.25;;;;;;;14.26;78.88;102284.47;4929125;28;20049;-49
2021/07/20 01:38:57;;;;;;;16.05;8.30;;;;;;;14.31;78.44;102287.19;4928089;28;20078;-50
2021/07/20 01:41:24;;;;;;;19.48;9.05;;;;;;;14.35;78.08;102283.75;4956684;28;20030;-51
2021/07/20 01:43:55;;;;;;;20.50;9.35;;;;;;;14.34;78.47;102285.50;4948181;28;21039;-52
2021/07/20 01:46:20;;;;;;;20.00;9.90;;;;;;;14.36;78.35;102285.53;4946931;28;20027;-47
2021/07/20 01:48:46;;;;;;;20.38;9.65;;;;;;;14.38;78.21;102284.75;4974069;28;20042;-50
2021/07/20 01:51:12;;;;;;;19.25;9.40;;;;;;;14.37;78.37;102280.38;4937287;28;20027;-49
2021/07/20 01:53:40;;;;;;;20.33;9.75;;;;;;;14.41;77.91;102282.19;5011990;28;20387;-52
2021/07/20 01:56:07;;;;;;;22.30;9.88;;;;;;;14.42;78.07;102276.09;4924682;28;20039;-51
2021/07/20 01:58:33;;;;;;;22.00;9.75;;;;;;;14.43;77.63;102290.09;4936823;28;20032;-53
2021/07/20 02:00:59;;;;;;;24.42;9.70;;;;;;;14.43;77.53;102285.72;4937077;28;20043;-53
2021/07/20 02:09:00;;;;;;;19.50;8.70;;;;;;;14.31;77.88;102289.81;4941664;28;20037;-49
2021/07/20 02:11:30;;;;;;;20.23;9.00;;;;;;;14.19;78.43;102282.56;4929379;28;20108;-51
2021/07/20 02:14:01;;;;;;;23.88;9.93;;;;;;;14.11;78.97;102279.78;4928520;28;20176;-51
2021/07/20 02:16:30;;;;;;;24.77;9.82;;;;;;;14.11;78.61;102282.41;4944754;28;20066;-50
2021/07/20 02:19:06;;;;;;;23.63;9.57;;;;;;;14.13;78.18;102287.69;4927055;28;20134;-52
2021/07/20 02:21:32;;;;;;;22.48;10.30;;;;;;;14.13;77.65;102283.34;4944144;28;20039;-50
2021/07/20 02:23:58;;;;;;;20.88;10.05;;;;;;;14.15;77.67;102288.59;4932379;28;20035;-53
2021/07/20 02:26:24;;;;;;;26.50;11.30;;;;;;;14.10;77.98;102287.59;4957578;28;20030;-53
2021/07/20 02:28:52;;;;;;;26.40;10.77;;;;;;;14.10;77.64;102291.13;4946161;28;20148;-50
2021/07/20 02:31:18;;;;;;;24.60;10.60;;;;;;;14.10;76.89;102292.84;4950803;28;20445;-51
2021/07/20 02:33:44;;;;;;;24.85;10.68;;;;;;;14.08;77.20;102290.22;4952947;28;20171;-48
2021/07/20 02:36:10;;;;;;;27.80;10.77;;;;;;;14.09;77.10;102296.31;4925411;28;20061;-49
2021/07/20 02:38:38;;;;;;;22.48;10.05;;;;;;;14.05;76.94;102300.63;4943246;28;20427;-52
2021/07/20 02:41:05;;;;;;;21.70;10.48;;;;;;;14.08;76.41;102291.97;4937702;28;21233;-49
2021/07/20 02:43:30;;;;;;;25.73;10.85;;;;;;;14.09;76.28;102289.34;4946101;28;20027;-50
2021/07/20 02:45:56;;;;;;;23.02;10.88;;;;;;;14.09;76.71;102288.44;4935752;28;20101;-53
2021/07/20 02:48:23;;;;;;;24.10;11.35;;;;;;;14.10;76.47;102285.88;4942199;28;20026;-50
2021/07/20 02:50:50;;;;;;;21.27;9.75;;;;;;;14.06;76.59;102285.78;4943526;28;20061;-51
2021/07/20 02:53:15;;;;;;;22.60;10.57;;;;;;;14.05;76.21;102284.91;4947790;28;20031;-52
2021/07/20 02:55:41;;;;;;;22.88;10.15;;;;;;;14.03;76.71;102296.19;4944246;28;20077;-49
2021/07/20 02:58:07;;;;;;;26.13;10.60;;;;;;;13.97;77.14;102283.84;4943952;28;20468;-52
2021/07/20 03:00:33;;;;;;;24.33;10.38;;;;;;;13.92;77.28;102295.97;4956018;28;20389;-52
2021/07/20 03:02:59;;;;;;;24.60;9.98;;;;;;;13.94;76.62;102290.75;4942090;28;20104;-51
2021/07/20 03:05:24;;;;;;;23.77;10.35;;;;;;;13.95;76.18;102284.66;4946617;28;20035;-49
2021/07/20 03:07:52;;;;;;;26.42;11.00;;;;;;;13.91;77.38;102288.94;4952808;28;20057;-51
2021/07/20 03:10:19;;;;;;;23.90;10.38;;;;;;;13.87;76.94;102288.84;4942242;28;20469;-47
2021/07/20 03:12:46;;;;;;;21.98;10.73;;;;;;;13.86;76.50;102287.06;4943555;28;20111;-49
2021/07/20 03:15:12;;;;;;;24.63;10.35;;;;;;;13.82;76.80;102288.75;4943253;28;20275;-51
2021/07/20 03:17:37;;;;;;;24.52;10.68;;;;;;;13.82;76.72;102287.03;4925800;28;20042;-50
2021/07/20 03:20:05;;;;;;;26.67;10.85;;;;;;;13.81;76.42;102290.50;4933942;28;20032;-51
2021/07/20 03:22:32;;;;;;;24.77;10.10;;;;;;;13.86;75.54;102282.72;4953092;28;20043;-51
2021/07/20 03:25:00;;;;;;;22.77;10.65;;;;;;;13.89;75.47;102292.41;4940572;28;20500;-48
2021/07/20 03:27:31;;;;;;;23.63;10.60;;;;;;;13.91;75.26;102288.06;4942534;28;20043;-51
2021/07/20 03:29:56;;;;;;;21.58;9.35;;;;;;;13.92;75.40;102287.22;4930735;28;20562;-48
2021/07/20 03:32:24;;;;;;;22.70;9.50;;;;;;;13.90;75.36;102291.56;4915484;28;20050;-52
2021/07/20 03:34:50;;;;;;;22.52;9.88;;;;;;;13.86;76.00;102294.94;4949973;28;20546;-51
2021/07/20 03:37:16;;;;;;;20.00;9.27;;;;;;;13.82;75.81;102291.38;4965013;28;20038;-49
2021/07/20 03:39:41;;;;;;;20.17;10.02;;;;;;;13.79;75.49;102291.28;4929458;28;20426;-49
2021/07/20 03:42:10;;;;;;;23.30;10.23;;;;;;;13.77;75.93;102290.41;4941719;28;20459;-47
2021/07/20 03:44:36;;;;;;;21.38;9.60;;;;;;;13.77;75.21;102290.41;4926435;28;20027;-51
2021/07/20 03:47:03;;;;;;;26.20;11.27;;;;;;;13.79;75.84;102284.31;4944379;28;20037;-50
2021/07/20 03:49:29;;;;;;;24.27;10.43;;;;;;;13.80;74.51;102286.09;4936606;28;20424;-53
2021/07/20 03:51:58;;;;;;;25.52;10.10;;;;;;;13.81;75.06;102281.72;4931456;28;20109;-49
2021/07/20 03:54:24;;;;;;;20.90;9.68;;;;;;;13.86;74.40;102280.09;4929361;28;20122;-47
2021/07/20 03:56:51;;;;;;;21.27;9.80;;;;;;;13.89;74.58;102290.66;4925755;28;20029;-47
2021/07/20 03:59:19;;;;;;;21.40;9.88;;;;;;;13.91;74.52;102293.31;4952781;28;20039;-52
2021/07/20 04:01:45;;;;;;;21.33;9.40;;;;;;;13.92;74.68;102289.84;4940303;28;20212;-51
2021/07/20 04:04:14;;;;;;;24.77;10.43;;;;;;;13.94;74.07;102293.38;4953749;28;20150;-52
2021/07/20 04:06:40;;;;;;;18.58;9.50;;;;;;;13.93;74.38;102294.22;4940390;28;20035;-52
2021/07/20 04:09:06;;;;;;;21.88;10.07;;;;;;;13.94;74.21;102296.88;4930481;28;20548;-49
2021/07/20 04:11:33;;;;;;;23.63;10.32;;;;;;;13.96;74.46;102289.97;4947252;28;20178;-48
2021/07/20 04:13:59;;;;;;;23.48;10.57;;;;;;;14.00;73.91;102293.50;4961815;28;20041;-53
2021/07/20 04:16:25;;;;;;;23.83;10.05;;;;;;;14.02;74.16;102291.81;4952795;28;20035;-53
2021/07/20 04:18:51;;;;;;;21.88;9.95;;;;;;;14.02;74.52;102292.72;4942261;28;20458;-51
2021/07/20 04:21:17;;;;;;;22.42;10.70;;;;;;;14.03;74.79;102297.06;4932686;28;20046;-52
2021/07/20 04:23:42;;;;;;;23.27;10.50;;;;;;;14.07;73.74;102288.44;4930823;28;20027;-51
2021/07/20 04:26:08;;;;;;;27.73;10.85;;;;;;;14.13;74.16;102292.94;4950933;28;20151;-52
2021/07/20 04:28:34;;;;;;;25.48;9.63;;;;;;;14.15;74.37;102297.34;4941398;28;20633;-49
2021/07/20 04:31:02;;;;;;;23.05;10.55;;;;;;;14.19;73.59;102290.44;4939126;28;20053;-51
2021/07/20 04:33:30;;;;;;;24.67;10.70;;;;;;;14.23;73.87;102294.88;4933120;28;20458;-53
2021/07/20 04:35:56;;;;;;;23.88;10.02;;;;;;;14.29;73.40;102295.00;4927684;28;20400;-53
2021/07/20 04:38:23;;;;;;;22.70;10.30;;;;;;;14.34;73.50;102298.63;4937961;28;20035;-49
2021/07/20 04:40:49;;;;;;;24.10;10.88;;;;;;;14.40;74.41;102295.25;4925178;28;20058;-52
2021/07/20 04:43:14;;;;;;;24.70;11.20;;;;;;;14.48;72.81;102301.56;4939522;28;20133;-50
2021/07/20 04:45:41;;;;;;;24.88;10.85;;;;;;;14.52;73.05;102296.41;4936631;28;20038;-49
2021/07/20 04:48:08;;;;;;;23.08;10.13;;;;;;;14.68;72.10;102296.72;4945326;28;20038;-48
2021/07/20 04:50:33;;;;;;;22.15;10.05;;;;;;;14.93;71.29;102293.69;4926434;28;20031;-49
2021/07/20 04:52:59;;;;;;;22.45;9.98;;;;;;;15.22;69.72;102300.34;4943828;28;20247;-50
2021/07/20 04:55:27;;;;;;;23.80;11.18;;;;;;;15.54;68.91;102289.50;4959634;28;20538;-47
2021/07/20 04:57:54;;;;;;;19.58;9.90;;;;;;;15.91;68.93;102297.06;4957080;28;20485;-50
2021/07/20 05:00:19;;;;;;;20.27;9.80;;;;;;;16.15;66.85;102293.88;4927449;28;20076;-51
2021/07/20 05:02:46;;;;;;;18.17;10.23;;;;;;;16.59;65.91;102297.03;4939196;28;20065;-47
2021/07/20 05:05:17;;;;;;;20.73;10.02;;;;;;;17.07;63.85;102296.72;4929700;28;20027;-50
2021/07/20 05:07:43;;;;;;;16.75;8.95;;;;;;;17.61;61.93;102298.94;4928838;28;20427;-47
2021/07/20 05:10:15;;;;;;;18.05;9.50;;;;;;;17.65;60.62;102299.84;4932055;28;20035;-48
2021/07/20 05:12:41;;;;;;;18.13;8.95;;;;;;;17.92;60.58;102289.47;4958311;28;20109;-49
2021/07/20 05:15:07;;;;;;;17.75;9.30;;;;;;;18.03;59.73;102293.06;4962978;28;20394;-53
2021/07/20 05:17:34;;;;;;;15.60;8.20;;;;;;;18.09;59.73;102297.47;4941061;28;20524;-52
2021/07/20 05:20:02;;;;;;;16.95;9.20;;;;;;;17.90;60.81;102292.97;4953898;28;20509;-53
2021/07/20 05:22:28;;;;;;;16.15;8.57;;;;;;;17.74;61.45;102302.56;4957587;28;20231;-50
2021/07/20 05:24:53;;;;;;;17.58;9.18;;;;;;;17.37;62.44;102306.63;4943419;28;20678;-51
2021/07/20 05:27:19;;;;;;;16.73;8.32;;;;;;;17.37;61.84;102299.63;4954335;28;20566;-49
2021/07/20 05:29:46;;;;;;;15.10;8.57;;;;;;;17.07;62.64;102301.09;4918803;28;20039;-49
2021/07/20 05:32:16;;;;;;;15.70;8.35;;;;;;;16.85;62.46;102295.59;4925114;28;20558;-51
2021/07/20 05:34:46;;;;;;;15.18;8.30;;;;;;;16.79;61.61;102298.16;4927474;28;20463;-50
2021/07/20 05:37:11;;;;;;;19.75;9.25;;;;;;;16.66;62.46;102301.53;4932151;28;20093;-53
2021/07/20 05:39:37;;;;;;;15.90;8.63;;;;;;;16.62;65.36;102295.38;4924764;28;20085;-49
2021/07/20 05:42:04;;;;;;;16.80;8.82;;;;;;;16.72;62.79;102303.34;4925019;28;20031;-49
2021/07/20 05:44:30;;;;;;;14.95;7.95;;;;;;;16.77;62.07;102304.31;4927776;28;20592;-48
2021/07/20 05:46:56;;;;;;;15.38;8.90;;;;;;;16.81;63.15;102298.19;4946918;28;20032;-53
2021/07/20 05:49:21;;;;;;;18.15;8.93;;;;;;;16.87;63.10;102299.16;4933037;28;20088;-52
2021/07/20 05:51:47;;;;;;;16.80;8.65;;;;;;;17.02;62.71;102298.41;4936567;28;20032;-49
2021/07/20 05:54:15;;;;;;;17.92;7.88;;;;;;;17.20;60.48;102290.66;4923758;28;20110;-53
2021/07/20 05:56:41;;;;;;;14.93;8.35;;;;;;;17.21;61.48;102302.09;4920540;28;20051;-53
2021/07/20 05:59:06;;;;;;;14.88;8.07;;;;;;;17.15;62.26;102296.75;4926725;28;20039;-53
2021/07/20 06:01:32;;;;;;;14.70;8.07;;;;;;;17.66;60.04;102302.50;4921839;28;20249;-53
2021/07/20 06:04:00;;;;;;;13.23;8.07;;;;;;;18.46;57.72;102303.78;4919192;28;20476;-50
2021/07/20 06:06:29;;;;;;;14.80;8.18;;;;;;;19.16;55.53;102301.31;4926378;28;20043;-50
2021/07/20 06:08:55;;;;;;;13.98;7.80;;;;;;;20.09;55.18;102299.47;4920414;28;20476;-51
2021/07/20 06:11:21;;;;;;;12.55;7.57;;;;;;;20.70;51.54;102300.13;4926225;28;20031;-51
2021/07/20 06:13:47;;;;;;;11.27;6.75;;;;;;;21.31;48.59;102305.03;4930571;28;20036;-53
2021/07/20 06:16:13;;;;;;;13.77;7.20;;;;;;;21.41;50.12;102299.63;4925533;28;20031;-51
2021/07/20 06:18:38;;;;;;;12.02;7.35;;;;;;;21.69;48.97;102297.59;4921314;28;20028;-50
2021/07/20 06:21:07;;;;;;;11.80;6.82;;;;;;;22.03;47.15;102305.22;4927051;28;20082;-49
2021/07/20 06:23:46;;;;;;;12.20;7.30;;;;;;;22.47;46.53;102302.03;4921668;28;20570;-54
2021/07/20 06:26:18;;;;;;;11.68;6.90;;;;;;;22.57;45.42;102309.84;4951730;28;20058;-49
2021/07/20 06:28:45;;;;;;;10.85;6.63;;;;;;;23.08;44.60;102301.19;4937280;28;20047;-51
2021/07/20 06:31:11;;;;;;;11.35;7.20;;;;;;;23.54;44.53;102306.66;4930642;28;20069;-49
2021/07/20 06:33:38;;;;;;;11.32;6.93;;;;;;;23.60;44.30;102302.13;4952967;28;20146;-51
2021/07/20 06:36:04;;;;;;;9.98;6.38;;;;;;;23.86;43.36;102304.25;4942752;28;20026;-50
2021/07/20 06:38:30;;;;;;;10.55;6.88;;;;;;;24.74;42.41;102310.47;4934024;28;20596;-52
2021/07/20 06:40:55;;;;;;;10.77;6.70;;;;;;;24.61;42.61;102309.84;4926535;28;20042;-51
2021/07/20 06:43:22;;;;;;;11.85;6.65;;;;;;;24.84;41.37;102303.09;4944051;28;20130;-52
2021/07/20 06:45:48;;;;;;;13.77;6.88;;;;;;;25.16;40.64;102310.38;4940479;28;20034;-50
2021/07/20 06:48:15;;;;;;;13.02;6.60;;;;;;;24.83;42.38;102314.69;4925860;28;20029;-50
2021/07/20 06:50:41;;;;;;;11.30;6.72;;;;;;;25.27;40.72;102313.66;4940730;28;20039;-51
2021/07/20 06:53:07;;;;;;;8.80;6.65;;;;;;;25.43;38.63;102309.72;4927100;28;20242;-52
2021/07/20 06:55:34;;;;;;;11.32;6.45;;;;;;;24.94;39.87;102307.38;4944843;28;20027;-51
2021/07/20 06:58:00;;;;;;;12.18;6.63;;;;;;;25.09;39.81;102307.00;4943795;28;20749;-52
2021/07/20 07:00:25;;;;;;;11.38;6.47;;;;;;;24.76;40.57;102305.97;4926563;28;20352;-52
2021/07/20 07:02:55;;;;;;;13.65;6.95;;;;;;;24.62;41.15;102310.72;4940283;28;20436;-51
2021/07/20 07:05:22;;;;;;;9.68;6.22;;;;;;;24.78;39.83;102316.59;4924686;28;20029;-48
2021/07/20 07:07:48;;;;;;;10.18;6.22;;;;;;;24.81;42.18;102322.75;4928450;28;20818;-51
2021/07/20 07:10:15;;;;;;;9.77;6.70;;;;;;;24.57;40.66;102317.97;4936013;28;20461;-48
2021/07/20 07:12:43;;;;;;;10.25;6.32;;;;;;;24.46;43.40;102322.63;4960571;28;20027;-50
2021/07/20 07:15:09;;;;;;;10.02;6.60;;;;;;;24.82;39.63;102327.19;4953718;28;20129;-51
2021/07/20 07:17:35;;;;;;;8.82;6.30;;;;;;;24.37;43.76;102320.16;4944262;28;20383;-48
2021/07/20 07:20:04;;;;;;;9.70;6.90;;;;;;;24.94;38.69;102326.03;4928532;28;20843;-51
2021/07/20 07:22:32;;;;;;;9.70;6.28;;;;;;;24.30;40.58;102327.41;4943756;28;20074;-54
2021/07/20 07:24:57;;;;;;;10.57;6.53;;;;;;;23.48;42.89;102325.41;4935212;28;20031;-52
2021/07/20 07:27:23;;;;;;;10.23;6.22;;;;;;;24.02;41.52;102336.84;4960414;28;20047;-52
2021/07/20 07:29:50;;;;;;;12.65;6.57;;;;;;;24.04;43.40;102324.34;4958242;28;20071;-47
2021/07/20 07:32:17;;;;;;;9.30;6.30;;;;;;;24.18;41.64;102319.63;4925590;28;20100;-52
2021/07/20 07:34:43;;;;;;;9.23;6.05;;;;;;;24.96;40.76;102327.75;4946006;28;20118;-52
2021/07/20 07:37:09;;;;;;;9.98;6.30;;;;;;;25.25;38.39;102331.53;4938838;28;20130;-50
2021/07/20 07:39:34;;;;;;;9.73;6.13;;;;;;;25.56;38.42;102331.59;4927466;28;20023;-53
2021/07/20 07:42:00;;;;;;;8.40;5.82;;;;;;;25.31;39.51;102331.38;4918194;28;20127;-53
2021/07/20 07:44:26;;;;;;;8.48;6.03;;;;;;;24.80;39.83;102326.31;4926646;28;20026;-49
2021/07/20 07:46:54;;;;;;;9.40;5.88;;;;;;;25.23;38.37;102331.56;4925753;28;20031;-49
2021/07/20 07:49:20;;;;;;;9.32;6.05;;;;;;;25.03;42.45;102325.81;4960439;28;20384;-48
2021/07/20 07:51:46;;;;;;;9.43;6.15;;;;;;;25.43;39.54;102323.06;4940227;28;20034;-51
2021/07/20 07:54:13;;;;;;;9.10;5.80;;;;;;;25.29;38.85;102330.53;4942648;28;20435;-50
2021/07/20 07:56:39;;;;;;;8.32;5.55;;;;;;;25.00;37.52;102325.91;4939160;28;20499;-49
2021/07/20 07:59:05;;;;;;;10.05;5.88;;;;;;;25.33;37.51;102338.41;4941187;28;20161;-50
2021/07/20 08:01:31;;;;;;;9.18;5.82;;;;;;;24.97;41.16;102329.50;4921896;28;20057;-49
2021/07/20 08:03:58;;;;;;;9.73;5.97;;;;;;;25.03;38.52;102329.38;4957854;28;20031;-49
2021/07/20 08:06:25;;;;;;;8.55;6.10;;;;;;;25.50;37.60;102326.41;4950824;28;20027;-52
2021/07/20 08:08:56;;;;;;;8.43;5.70;;;;;;;25.29;38.58;102331.41;4939279;28;20046;-51
2021/07/20 08:11:22;;;;;;;11.20;6.00;;;;;;;25.46;39.92;102328.31;4928316;28;20053;-50
2021/07/20 08:13:48;;;;;;;8.70;5.88;;;;;;;24.96;41.22;102332.19;4937555;28;20019;-52
2021/07/20 08:16:14;;;;;;;9.55;5.90;;;;;;;25.38;39.63;102328.50;4932201;28;20027;-53
2021/07/20 08:18:40;;;;;;;9.60;5.95;;;;;;;25.42;39.36;102331.97;4938089;28;20439;-52
2021/07/20 08:21:06;;;;;;;10.45;6.05;;;;;;;25.73;37.12;102324.97;4943977;28;20123;-51
2021/07/20 08:23:33;;;;;;;8.48;5.85;;;;;;;25.65;39.07;102332.31;4942131;28;20039;-50
2021/07/20 08:26:05;;;;;;;8.35;5.80;;;;;;;25.29;40.54;102339.41;4938674;28;20088;-50
2021/07/20 08:28:44;;;;;;;9.20;6.20;;;;;;;25.20;40.41;102330.75;4939798;28;20032;-48
2021/07/20 08:31:10;;;;;;;8.73;6.07;;;;;;;25.17;40.32;102337.06;4963481;28;20027;-50
2021/07/20 08:33:37;;;;;;;9.50;5.80;;;;;;;25.27;39.52;102330.56;4919210;28;20326;-48
2021/07/20 08:36:06;;;;;;;10.13;5.75;;;;;;;25.57;41.08;102339.63;4933400;28;20099;-52
2021/07/20 08:38:34;;;;;;;10.43;6.10;;;;;;;25.27;41.88;102337.69;4936863;28;20031;-50
2021/07/20 08:41:03;;;;;;;9.27;6.10;;;;;;;24.84;42.76;102332.44;4949708;28;20030;-51
2021/07/20 08:43:45;;;;;;;9.73;6.32;;;;;;;24.58;41.57;102333.03;4956275;28;20486;-50
2021/07/20 08:46:13;;;;;;;9.70;6.60;;;;;;;24.35;41.54;102325.53;4932309;28;20042;-50
2021/07/20 08:48:44;;;;;;;9.25;6.03;;;;;;;24.47;41.64;102330.59;4936820;28;20027;-54
2021/07/20 08:51:13;;;;;;;12.40;6.57;;;;;;;24.22;41.31;102326.69;4943515;28;20061;-52
2021/07/20 08:53:49;;;;;;;11.23;6.60;;;;;;;24.07;45.21;102327.84;4935713;28;20035;-49
2021/07/20 08:56:17;;;;;;;10.68;6.60;;;;;;;23.99;42.06;102315.56;4927424;28;20034;-51
2021/07/20 08:58:46;;;;;;;10.38;6.43;;;;;;;23.84;45.80;102327.41;4936157;28;20042;-53
2021/07/20 09:01:27;;;;;;;9.68;7.03;;;;;;;23.57;43.22;102336.75;4927239;28;20343;-53
2021/07/20 09:04:00;;;;;;;10.05;6.60;;;;;;;23.44;45.12;102327.19;4931348;28;20818;-52
2021/07/20 09:06:33;;;;;;;10.05;6.60;;;;;;;23.50;44.41;102326.22;4933115;28;20129;-51
2021/07/20 09:09:10;;;;;;;10.10;6.82;;;;;;;23.36;43.19;102334.44;4939206;28;20357;-51
2021/07/20 09:11:47;;;;;;;10.50;6.60;;;;;;;23.29;43.45;102338.97;4942241;28;20038;-50
2021/07/20 09:14:34;;;;;;;9.18;6.50;;;;;;;23.44;46.39;102335.16;4938316;28;20031;-48
2021/07/20 09:17:09;;;;;;;10.23;6.40;;;;;;;23.62;43.96;102334.88;4952516;28;20477;-52
2021/07/20 09:19:45;;;;;;;10.85;6.93;;;;;;;23.58;42.51;102333.19;4935134;28;20474;-53
2021/07/20 09:22:17;;;;;;;12.15;6.68;;;;;;;23.12;47.05;102335.69;4938040;28;20039;-52
2021/07/20 09:24:56;;;;;;;10.10;7.00;;;;;;;23.35;48.15;102333.56;4944161;28;20578;-52
2021/07/20 09:27:39;;;;;;;9.60;6.43;;;;;;;23.56;43.56;102339.44;4956995;28;20445;-50
2021/07/20 09:30:14;;;;;;;10.68;6.97;;;;;;;23.51;44.55;102334.19;5012987;28;20085;-54
2021/07/20 09:33:19;;;;;;;9.65;6.75;;;;;;;23.32;43.12;102341.56;4941050;28;20035;-50
2021/07/20 09:35:56;;;;;;;12.02;6.95;;;;;;;23.51;46.69;102339.53;4955302;28;20047;-50
2021/07/20 09:38:55;;;;;;;12.63;7.10;;;;;;;23.63;44.56;102341.09;4934531;28;20043;-53
2021/07/20 09:41:33;;;;;;;10.07;6.78;;;;;;;23.64;43.48;102338.41;4945179;28;20479;-51
2021/07/20 09:44:11;;;;;;;11.52;7.28;;;;;;;23.61;44.87;102340.22;4921411;28;20039;-52
2021/07/20 09:46:41;;;;;;;11.73;7.80;;;;;;;23.65;46.95;102328.66;4956587;28;20395;-50
2021/07/20 09:49:33;;;;;;;11.30;7.15;;;;;;;23.46;44.68;102333.38;4944286;28;20061;-53
2021/07/20 09:52:49;;;;;;;11.02;7.40;;;;;;;23.27;43.42;102330.13;5009345;28;20117;-49
2021/07/20 09:55:25;;;;;;;10.38;7.22;;;;;;;23.36;45.04;102327.31;4922051;28;20483;-48
2021/07/20 09:57:59;;;;;;;11.13;7.13;;;;;;;23.30;50.58;102335.38;4942519;28;20542;-49
2021/07/20 10:00:33;;;;;;;10.90;6.95;;;;;;;23.23;48.21;102340.84;4978940;28;20741;-49
2021/07/20 10:03:32;;;;;;;11.32;7.25;;;;;;;23.45;46.71;102336.94;4945964;28;20565;-50
2021/07/20 10:06:07;;;;;;;12.82;7.63;;;;;;;23.30;43.27;102332.72;4957520;28;20050;-55
2021/07/20 10:08:49;;;;;;;12.63;7.07;;;;;;;23.43;46.08;102336.06;4961576;28;20023;-53
2021/07/20 10:11:45;;;;;;;10.75;6.95;;;;;;;23.70;45.48;102326.78;4936037;28;20030;-51
2021/07/20 10:14:31;;;;;;;13.25;7.38;;;;;;;23.31;44.59;102342.47;4943271;28;20042;-48
2021/07/20 10:17:21;;;;;;;10.55;6.80;;;;;;;23.35;46.35;102333.56;4938478;28;20032;-52
2021/07/20 10:19:57;;;;;;;10.40;6.85;;;;;;;23.54;48.09;102334.16;4929979;28;20035;-50
2021/07/20 10:22:29;;;;;;;11.68;7.18;;;;;;;23.45;43.60;102332.50;4934270;28;20027;-49
2021/07/20 10:25:00;;;;;;;11.73;7.00;;;;;;;23.54;44.12;102320.84;4947378;28;20051;-52
2021/07/20 10:27:51;;;;;;;9.32;6.22;;;;;;;23.71;45.01;102317.88;4931895;28;20039;-53
2021/07/20 10:30:18;;;;;;;12.30;7.13;;;;;;;23.35;46.22;102319.38;4949588;28;20046;-53
2021/07/20 10:32:52;;;;;;;10.50;6.90;;;;;;;23.24;44.40;102334.59;4935093;28;20372;-52
2021/07/20 10:35:34;;;;;;;11.02;6.70;;;;;;;23.28;44.36;102331.91;4940044;28;20394;-52
2021/07/20 10:38:00;;;;;;;10.90;7.18;;;;;;;23.43;44.12;102318.31;4943441;28;20031;-49
2021/07/20 10:40:27;;;;;;;11.43;6.97;;;;;;;23.46;42.67;102312.06;4967529;28;20038;-51
2021/07/20 10:43:00;;;;;;;11.05;7.28;;;;;;;23.49;46.00;102314.72;4959908;28;20035;-52
2021/07/20 10:45:28;;;;;;;10.02;6.90;;;;;;;23.54;42.63;102310.22;4934686;28;20042;-50
2021/07/20 10:47:56;;;;;;;11.55;7.10;;;;;;;23.29;42.99;102314.16;4939532;28;20078;-49
2021/07/20 10:50:26;;;;;;;9.95;6.88;;;;;;;23.34;43.22;102312.28;4958198;28;20091;-51
2021/07/20 10:53:00;;;;;;;10.20;6.78;;;;;;;23.13;43.78;102307.31;4949356;28;20035;-53
2021/07/20 10:55:42;;;;;;;11.52;6.75;;;;;;;23.38;43.83;102308.66;4934541;28;20034;-48
2021/07/20 10:58:30;;;;;;;10.07;6.70;;;;;;;23.15;43.84;102306.38;4941437;28;20027;-50
2021/07/20 11:01:02;;;;;;;11.18;6.80;;;;;;;23.50;47.65;102305.81;4943118;28;20047;-49
2021/07/20 11:04:07;;;;;;;11.13;7.20;;;;;;;23.49;50.18;102311.16;4926799;28;20282;-50
2021/07/20 11:06:36;;;;;;;11.77;7.15;;;;;;;23.74;43.38;102308.03;4941363;28;20049;-49
2021/07/20 11:09:04;;;;;;;9.68;6.80;;;;;;;23.71;43.35;102307.22;4951283;28;20146;-51
2021/07/20 11:11:35;;;;;;;9.93;7.38;;;;;;;23.48;44.00;102302.31;4928678;28;20058;-51
2021/07/20 11:14:02;;;;;;;10.48;7.20;;;;;;;23.59;47.66;102307.44;4944695;28;20744;-49
2021/07/20 11:16:30;;;;;;;10.75;6.60;;;;;;;23.76;43.84;102298.25;4942204;28;20030;-48
2021/07/20 11:18:56;;;;;;;10.05;7.07;;;;;;;23.90;42.79;102295.34;4941952;28;20023;-50
2021/07/20 11:21:24;;;;;;;11.38;7.00;;;;;;;24.12;46.29;102291.31;4955161;28;20035;-48
2021/07/20 11:23:51;;;;;;;11.18;7.18;;;;;;;23.50;43.65;102291.63;4926508;28;20110;-50
2021/07/20 11:26:17;;;;;;;10.38;7.35;;;;;;;23.72;44.79;102296.56;4939216;28;20542;-52
2021/07/20 11:28:44;;;;;;;11.48;7.18;;;;;;;24.02;46.23;102294.22;4941752;28;20110;-51
2021/07/20 11:31:13;;;;;;;10.38;6.88;;;;;;;24.13;44.09;102292.19;4946085;28;20182;-53